createdAt,value
2019-03-12T00:00:34.844Z,82.53
2019-03-12T00:01:35.310Z,82.43
2019-03-12T00:02:35.863Z,82.39
2019-03-12T00:03:36.371Z,82.26
2019-03-12T00:04:36.393Z,82.51
2019-03-12T00:05:37.001Z,82.85
2019-03-12T00:06:37.545Z,82.88
2019-03-12T00:07:38.122Z,82.68
2019-03-12T00:08:38.641Z,83.13
2019-03-12T00:09:39.103Z,83.24
2019-03-12T00:10:39.570Z,83.30
2019-03-12T00:11:40.481Z,83.34
2019-03-12T00:12:41.390Z,83.24
2019-03-12T00:13:41.975Z,83.52
2019-03-12T00:14:43.576Z,83.31
2019-03-12T00:15:43.378Z,83.75
2019-03-12T00:16:43.718Z,83.86
2019-03-12T00:17:44.383Z,83.83
2019-03-12T00:18:45.308Z,83.90
2019-03-12T00:19:46.078Z,83.91
2019-03-12T00:20:46.158Z,83.81
2019-03-12T00:21:46.847Z,83.67
2019-03-12T00:22:47.621Z,83.63
2019-03-12T00:23:48.270Z,83.59
2019-03-12T00:24:48.836Z,83.38
2019-03-12T00:25:49.397Z,83.23
2019-03-12T00:26:50.287Z,83.56
2019-03-12T00:27:50.959Z,83.75
2019-03-12T00:28:51.653Z,83.37
2019-03-12T00:29:52.392Z,83.53
2019-03-12T00:30:51.904Z,83.42
2019-03-12T00:31:00.469Z,83.55
2019-03-12T00:32:00.647Z,83.55
2019-03-12T00:33:02.558Z,83.67
2019-03-12T00:34:02.402Z,83.64
2019-03-12T00:35:04.032Z,83.67
2019-03-12T00:36:04.564Z,83.43
2019-03-12T00:37:05.275Z,83.31
2019-03-12T00:38:05.899Z,83.69
2019-03-12T00:39:06.393Z,83.60
2019-03-12T00:40:07.062Z,83.64
2019-03-12T00:41:07.900Z,83.57
2019-03-12T00:42:08.829Z,83.53
2019-03-12T00:43:07.824Z,83.21
2019-03-12T00:44:09.489Z,83.52
2019-03-12T00:45:10.269Z,83.72
2019-03-12T00:46:11.082Z,83.85
2019-03-12T00:47:12.007Z,83.94
2019-03-12T00:48:12.622Z,83.85
2019-03-12T00:49:13.442Z,84.05
2019-03-12T00:50:14.143Z,84.11
2019-03-12T00:51:15.114Z,84.00
2019-03-12T00:52:15.857Z,83.95
2019-03-12T00:53:16.722Z,84.24
2019-03-12T00:54:17.338Z,83.76
2019-03-12T00:55:18.206Z,84.08
2019-03-12T00:56:18.771Z,84.32
2019-03-12T00:57:19.388Z,84.02
2019-03-12T00:58:19.930Z,84.04
2019-03-12T00:59:20.696Z,83.98
2019-03-12T01:00:21.647Z,83.68
2019-03-12T01:01:22.373Z,83.78
2019-03-12T01:02:22.633Z,84.01
2019-03-12T01:03:23.397Z,84.01
2019-03-12T01:04:24.093Z,84.00
2019-03-12T01:05:25.014Z,84.05
2019-03-12T01:06:25.917Z,84.06
2019-03-12T01:07:26.554Z,84.04
2019-03-12T01:08:26.974Z,83.78
2019-03-12T01:09:27.627Z,84.18
2019-03-12T01:10:28.356Z,84.20
2019-03-12T01:11:29.025Z,84.22
2019-03-12T01:12:29.882Z,84.22
2019-03-12T01:13:30.718Z,84.12
2019-03-12T01:14:31.621Z,84.38
2019-03-12T01:15:32.216Z,84.30
2019-03-12T01:16:32.809Z,84.42
2019-03-12T01:17:33.541Z,84.40
2019-03-12T01:17:42.578Z,84.68
2019-03-12T01:18:44.166Z,84.70
2019-03-12T01:19:44.653Z,84.92
2019-03-12T01:20:45.335Z,84.72
2019-03-12T01:21:46.072Z,84.50
2019-03-12T01:22:45.898Z,84.77
2019-03-12T01:23:47.877Z,84.31
2019-03-12T01:24:48.594Z,84.40
2019-03-12T01:25:49.374Z,84.34
2019-03-12T01:26:50.035Z,84.29
2019-03-12T01:27:50.820Z,84.47
2019-03-12T01:28:51.401Z,84.22
2019-03-12T01:29:51.872Z,84.03
2019-03-12T01:30:52.727Z,84.61
2019-03-12T01:31:53.360Z,84.42
2019-03-12T01:32:54.083Z,84.29
2019-03-12T01:33:54.811Z,84.27
2019-03-12T01:34:55.379Z,84.62
2019-03-12T01:35:55.956Z,84.58
2019-03-12T01:36:56.700Z,85.05
2019-03-12T01:37:57.301Z,85.16
2019-03-12T01:38:58.068Z,85.28
2019-03-12T01:39:58.734Z,85.10
2019-03-12T01:40:59.250Z,85.35
2019-03-12T01:42:00.266Z,85.04
2019-03-12T01:43:01.188Z,85.31
2019-03-12T01:44:01.916Z,85.20
2019-03-12T01:45:02.668Z,85.33
2019-03-12T01:46:03.262Z,85.25
2019-03-12T01:47:03.891Z,85.38
2019-03-12T01:48:04.529Z,85.27
2019-03-12T01:49:05.115Z,85.35
2019-03-12T01:50:05.777Z,85.41
2019-03-12T01:51:05.361Z,85.30
2019-03-12T01:52:06.914Z,85.29
2019-03-12T01:53:07.674Z,85.51
2019-03-12T01:54:08.373Z,85.62
2019-03-12T01:55:08.939Z,85.61
2019-03-12T01:56:09.600Z,86.02
2019-03-12T01:57:10.276Z,85.96
2019-03-12T01:58:10.887Z,85.94
2019-03-12T01:59:10.415Z,86.10
2019-03-12T02:00:12.278Z,86.23
2019-03-12T02:01:12.832Z,86.11
2019-03-12T02:02:13.529Z,86.00
2019-03-12T02:02:22.103Z,86.25
2019-03-12T02:03:23.835Z,86.25
2019-03-12T02:04:24.420Z,86.45
2019-03-12T02:05:25.134Z,86.30
2019-03-12T02:06:25.929Z,86.46
2019-03-12T02:07:26.647Z,86.20
2019-03-12T02:08:27.426Z,85.99
2019-03-12T02:09:28.403Z,86.05
2019-03-12T02:10:29.058Z,86.05
2019-03-12T02:11:29.853Z,86.05
2019-03-12T02:12:30.588Z,85.70
2019-03-12T02:13:31.229Z,86.06
2019-03-12T02:14:31.423Z,86.11
2019-03-12T02:15:32.071Z,86.29
2019-03-12T02:16:34.813Z,86.22
2019-03-12T02:17:32.438Z,86.17
2019-03-12T02:18:33.992Z,86.09
2019-03-12T02:19:34.704Z,86.30
2019-03-12T02:20:35.570Z,86.49
2019-03-12T02:21:35.367Z,86.47
2019-03-12T02:22:36.971Z,86.44
2019-03-12T02:23:37.965Z,86.66
2019-03-12T02:24:51.744Z,86.83
2019-03-12T02:25:38.620Z,86.77
2019-03-12T02:26:40.292Z,86.70
2019-03-12T02:27:40.902Z,86.63
2019-03-12T02:28:41.381Z,86.60
2019-03-12T02:29:42.015Z,86.59
2019-03-12T02:30:42.671Z,86.66
2019-03-12T02:31:42.695Z,86.78
2019-03-12T02:32:44.826Z,86.86
2019-03-12T02:33:42.789Z,86.96
2019-03-12T02:34:44.384Z,86.83
2019-03-12T02:35:44.951Z,86.56
2019-03-12T02:36:44.973Z,86.29
2019-03-12T02:37:45.676Z,86.37
2019-03-12T02:38:46.281Z,86.22
2019-03-12T02:39:46.926Z,86.27
2019-03-12T02:40:47.544Z,86.30
2019-03-12T02:41:48.093Z,86.06
2019-03-12T02:42:49.025Z,86.51
2019-03-12T02:43:49.810Z,86.47
2019-03-12T02:44:50.790Z,86.63
2019-03-12T02:45:51.590Z,86.42
2019-03-12T02:46:52.245Z,86.37
2019-03-12T02:47:53.060Z,86.27
2019-03-12T02:48:53.647Z,86.07
2019-03-12T02:49:54.252Z,86.10
2019-03-12T02:50:03.278Z,86.26
2019-03-12T02:51:05.136Z,86.33
2019-03-12T02:52:05.635Z,86.29
2019-03-12T02:53:06.488Z,85.88
2019-03-12T02:54:07.227Z,85.86
2019-03-12T02:55:07.890Z,85.64
2019-03-12T02:56:08.748Z,85.62
2019-03-12T02:57:09.555Z,85.68
2019-03-12T02:58:09.281Z,85.62
2019-03-12T02:59:11.005Z,85.54
2019-03-12T03:00:10.767Z,85.37
2019-03-12T03:01:12.433Z,85.34
2019-03-12T03:02:13.209Z,85.48
2019-03-12T03:03:13.874Z,85.25
2019-03-12T03:04:14.486Z,85.42
2019-03-12T03:05:15.209Z,85.60
2019-03-12T03:06:15.445Z,85.49
2019-03-12T03:07:16.091Z,85.92
2019-03-12T03:08:16.918Z,85.85
2019-03-12T03:09:16.486Z,85.79
2019-03-12T03:10:18.206Z,85.62
2019-03-12T03:11:19.053Z,85.76
2019-03-12T03:12:19.649Z,85.62
2019-03-12T03:13:19.635Z,85.62
2019-03-12T03:14:19.638Z,85.87
2019-03-12T03:15:20.154Z,85.94
2019-03-12T03:16:23.847Z,85.95
2019-03-12T03:17:20.453Z,86.16
2019-03-12T03:18:21.927Z,85.95
2019-03-12T03:19:22.155Z,85.76
2019-03-12T03:20:23.073Z,85.85
2019-03-12T03:21:23.627Z,86.11
2019-03-12T03:22:24.280Z,86.10
2019-03-12T03:23:25.114Z,86.40
2019-03-12T03:24:24.725Z,86.46
2019-03-12T03:25:26.408Z,86.47
2019-03-12T03:26:26.027Z,86.43
2019-03-12T03:27:29.251Z,86.44
2019-03-12T03:28:27.694Z,86.52
2019-03-12T03:29:29.504Z,86.77
2019-03-12T03:30:30.170Z,86.62
2019-03-12T03:31:30.998Z,86.86
2019-03-12T03:32:30.638Z,86.62
2019-03-12T03:33:32.339Z,86.84
2019-03-12T03:34:32.868Z,86.60
2019-03-12T03:35:32.314Z,86.55
2019-03-12T03:36:33.880Z,86.32
2019-03-12T03:37:34.462Z,86.50
2019-03-12T03:38:34.878Z,86.31
2019-03-12T03:39:35.485Z,86.65
2019-03-12T03:40:36.313Z,86.42
2019-03-12T03:41:37.075Z,86.19
2019-03-12T03:41:46.103Z,86.31
2019-03-12T03:42:47.767Z,86.28
2019-03-12T03:43:48.448Z,86.33
2019-03-12T03:44:49.215Z,86.33
2019-03-12T03:45:49.719Z,86.46
2019-03-12T03:46:50.303Z,86.69
2019-03-12T03:47:50.890Z,86.76
2019-03-12T03:48:51.607Z,86.48
2019-03-12T03:49:51.269Z,86.72
2019-03-12T03:50:53.228Z,87.12
2019-03-12T03:51:53.965Z,87.00
2019-03-12T03:52:54.648Z,86.94
2019-03-12T03:53:55.357Z,87.09
2019-03-12T03:54:56.110Z,87.24
2019-03-12T03:55:56.824Z,87.25
2019-03-12T03:56:57.198Z,87.33
2019-03-12T03:57:57.764Z,87.24
2019-03-12T03:58:58.349Z,87.24
2019-03-12T03:59:58.856Z,87.32
2019-03-12T04:00:59.372Z,87.24
2019-03-12T04:01:59.538Z,87.48
2019-03-12T04:03:00.322Z,87.62
2019-03-12T04:04:00.946Z,87.84
2019-03-12T04:05:01.875Z,87.82
2019-03-12T04:06:02.436Z,87.99
2019-03-12T04:07:03.007Z,88.12
2019-03-12T04:08:03.659Z,88.00
2019-03-12T04:09:04.258Z,88.14
2019-03-12T04:10:04.897Z,88.29
2019-03-12T04:11:05.000Z,88.30
2019-03-12T04:12:05.622Z,88.06
2019-03-12T04:13:06.241Z,87.86
2019-03-12T04:14:06.961Z,87.73
2019-03-12T04:15:07.619Z,87.85
2019-03-12T04:16:08.205Z,87.57
2019-03-12T04:17:08.823Z,87.67
2019-03-12T04:18:09.468Z,87.84
2019-03-12T04:19:10.144Z,87.73
2019-03-12T04:20:10.863Z,87.49
2019-03-12T04:21:11.474Z,87.43
2019-03-12T04:22:11.923Z,87.58
2019-03-12T04:23:15.809Z,87.44
2019-03-12T04:24:12.120Z,87.65
2019-03-12T04:25:13.825Z,87.60
2019-03-12T04:26:14.333Z,87.46
2019-03-12T04:26:22.884Z,87.48
2019-03-12T04:27:24.454Z,87.46
2019-03-12T04:28:24.946Z,87.54
2019-03-12T04:29:25.650Z,87.43
2019-03-12T04:30:25.257Z,87.32
2019-03-12T04:31:26.884Z,87.35
2019-03-12T04:32:27.515Z,87.66
2019-03-12T04:33:28.179Z,87.88
2019-03-12T04:34:29.075Z,87.72
2019-03-12T04:35:29.832Z,87.76
2019-03-12T04:36:30.518Z,87.66
2019-03-12T04:37:31.119Z,87.69
2019-03-12T04:38:30.696Z,87.94
2019-03-12T04:39:32.331Z,88.11
2019-03-12T04:40:33.075Z,87.91
2019-03-12T04:41:33.660Z,87.61
2019-03-12T04:42:34.176Z,87.69
2019-03-12T04:43:34.846Z,87.99
2019-03-12T04:44:35.462Z,88.02
2019-03-12T04:45:36.060Z,88.11
2019-03-12T04:46:36.855Z,88.14
2019-03-12T04:47:37.630Z,88.13
2019-03-12T04:48:37.688Z,87.73
2019-03-12T04:49:38.290Z,87.90
2019-03-12T04:50:38.886Z,87.85
2019-03-12T04:51:39.528Z,87.89
2019-03-12T04:52:40.347Z,87.73
2019-03-12T04:53:41.096Z,87.81
2019-03-12T04:54:41.790Z,87.67
2019-03-12T04:55:42.370Z,87.78
2019-03-12T04:56:42.954Z,87.58
2019-03-12T04:57:43.496Z,87.60
2019-03-12T04:58:43.959Z,88.00
2019-03-12T04:59:44.610Z,88.20
2019-03-12T05:00:45.271Z,87.82
2019-03-12T05:01:46.197Z,88.00
2019-03-12T05:02:46.809Z,88.02
2019-03-12T05:03:47.621Z,88.00
2019-03-12T05:04:48.237Z,87.95
2019-03-12T05:05:48.908Z,88.21
2019-03-12T05:06:49.664Z,88.29
2019-03-12T05:07:50.622Z,88.35
2019-03-12T05:08:51.303Z,88.38
2019-03-12T05:09:51.962Z,88.15
2019-03-12T05:10:52.728Z,88.49
2019-03-12T05:11:01.314Z,88.62
2019-03-12T05:12:03.001Z,88.64
2019-03-12T05:13:03.970Z,88.75
2019-03-12T05:14:04.556Z,88.73
2019-03-12T05:15:05.144Z,88.62
2019-03-12T05:16:05.808Z,88.73
2019-03-12T05:17:06.455Z,88.48
2019-03-12T05:18:07.055Z,88.73
2019-03-12T05:19:07.661Z,88.80
2019-03-12T05:20:08.438Z,88.86
2019-03-12T05:21:08.960Z,89.25
2019-03-12T05:22:09.582Z,89.23
2019-03-12T05:23:10.214Z,89.08
2019-03-12T05:24:10.873Z,89.29
2019-03-12T05:25:11.647Z,89.59
2019-03-12T05:26:12.372Z,89.70
2019-03-12T05:27:13.151Z,89.65
2019-03-12T05:28:14.054Z,89.75
2019-03-12T05:29:14.737Z,89.84
2019-03-12T05:30:15.606Z,89.77
2019-03-12T05:31:16.289Z,89.89
2019-03-12T05:32:16.890Z,90.17
2019-03-12T05:33:17.493Z,90.17
2019-03-12T05:34:18.155Z,89.92
2019-03-12T05:35:18.797Z,90.06
2019-03-12T05:36:19.421Z,90.08
2019-03-12T05:37:20.099Z,90.03
2019-03-12T05:38:20.889Z,89.89
2019-03-12T05:39:21.207Z,90.08
2019-03-12T05:40:22.088Z,90.00
2019-03-12T05:41:22.620Z,90.24
2019-03-12T05:42:23.418Z,90.14
2019-03-12T05:43:24.387Z,90.23
2019-03-12T05:44:25.200Z,90.33
2019-03-12T05:45:25.791Z,90.32
2019-03-12T05:46:26.476Z,90.33
2019-03-12T05:47:27.286Z,90.41
2019-03-12T05:48:28.038Z,90.44
2019-03-12T05:49:28.719Z,90.47
2019-03-12T05:50:29.474Z,90.47
2019-03-12T05:51:30.316Z,90.52
2019-03-12T05:52:31.096Z,90.58
2019-03-12T05:53:31.669Z,90.64
2019-03-12T05:54:32.302Z,90.67
2019-03-12T05:54:40.932Z,90.78
2019-03-12T05:55:41.372Z,90.82
2019-03-12T05:56:43.131Z,90.72
2019-03-12T05:57:43.683Z,90.51
2019-03-12T05:58:44.184Z,90.13
2019-03-12T05:59:44.791Z,90.15
2019-03-12T06:00:45.424Z,90.16
2019-03-12T06:01:46.900Z,90.24
2019-03-12T06:02:45.611Z,90.18
2019-03-12T06:03:47.279Z,90.16
2019-03-12T06:04:47.270Z,90.31
2019-03-12T06:05:47.857Z,90.45
2019-03-12T06:06:48.523Z,90.37
2019-03-12T06:07:49.114Z,90.37
2019-03-12T06:08:49.854Z,90.36
2019-03-12T06:09:50.432Z,90.31
2019-03-12T06:10:50.145Z,90.31
2019-03-12T06:11:51.820Z,90.22
2019-03-12T06:12:52.651Z,90.32
2019-03-12T06:13:53.155Z,90.71
2019-03-12T06:14:53.694Z,90.56
2019-03-12T06:15:54.475Z,90.49
2019-03-12T06:16:55.074Z,90.77
2019-03-12T06:17:55.488Z,90.62
2019-03-12T06:18:56.104Z,90.49
2019-03-12T06:19:56.765Z,91.08
2019-03-12T06:20:57.442Z,91.25
2019-03-12T06:21:58.176Z,91.48
2019-03-12T06:22:58.733Z,91.43
2019-03-12T06:23:59.330Z,91.27
2019-03-12T06:25:00.015Z,91.23
2019-03-12T06:26:00.734Z,91.37
2019-03-12T06:27:01.627Z,91.30
2019-03-12T06:28:02.545Z,91.21
2019-03-12T06:29:02.569Z,90.97
2019-03-12T06:30:02.525Z,90.76
2019-03-12T06:31:04.109Z,90.43
2019-03-12T06:32:05.005Z,90.35
2019-03-12T06:33:05.310Z,90.10
2019-03-12T06:34:05.607Z,90.33
2019-03-12T06:35:05.861Z,90.21
2019-03-12T06:36:05.857Z,89.82
2019-03-12T06:37:06.871Z,89.98
2019-03-12T06:38:07.727Z,89.93
2019-03-12T06:39:08.628Z,89.94
2019-03-12T06:40:09.445Z,89.76
2019-03-12T06:41:09.587Z,88.90
2019-03-12T06:42:10.146Z,89.15
2019-03-12T06:42:20.232Z,89.11
2019-03-12T06:43:20.270Z,89.10
2019-03-12T06:44:22.066Z,89.05
2019-03-12T06:45:22.773Z,88.93
2019-03-12T06:46:22.878Z,89.22
2019-03-12T06:47:23.509Z,89.32
2019-03-12T06:48:23.617Z,89.42
2019-03-12T06:49:24.638Z,89.43
2019-03-12T06:50:23.717Z,89.38
2019-03-12T06:51:25.532Z,89.28
2019-03-12T06:52:24.628Z,89.08
2019-03-12T06:53:26.123Z,88.73
2019-03-12T06:54:26.404Z,88.84
2019-03-12T06:55:26.646Z,88.89
2019-03-12T06:56:26.970Z,88.52
2019-03-12T06:57:27.786Z,88.70
2019-03-12T06:58:27.990Z,89.00
2019-03-12T06:59:28.963Z,88.90
2019-03-12T07:00:29.260Z,88.81
2019-03-12T07:01:29.933Z,88.09
2019-03-12T07:02:30.619Z,88.21
2019-03-12T07:03:30.791Z,88.35
2019-03-12T07:04:31.053Z,88.18
2019-03-12T07:05:31.601Z,87.95
2019-03-12T07:06:32.342Z,87.92
2019-03-12T07:07:33.111Z,88.03
2019-03-12T07:08:33.962Z,88.22
2019-03-12T07:09:34.761Z,87.96
2019-03-12T07:10:35.180Z,88.14
2019-03-12T07:11:35.887Z,88.20
2019-03-12T07:12:36.943Z,87.60
2019-03-12T07:13:35.840Z,88.08
2019-03-12T07:14:36.840Z,87.80
2019-03-12T07:15:37.709Z,87.66
2019-03-12T07:16:38.165Z,87.43
2019-03-12T07:17:38.329Z,87.86
2019-03-12T07:18:39.285Z,87.69
2019-03-12T07:19:39.968Z,87.75
2019-03-12T07:20:40.017Z,87.54
2019-03-12T07:21:40.238Z,87.35
2019-03-12T07:22:40.934Z,87.03
2019-03-12T07:23:41.688Z,86.36
2019-03-12T07:24:42.450Z,86.16
2019-03-12T07:25:43.145Z,85.57
2019-03-12T07:26:43.246Z,84.90
2019-03-12T07:27:44.096Z,85.21
2019-03-12T07:27:52.636Z,85.04
2019-03-12T07:28:54.177Z,85.09
2019-03-12T07:29:54.988Z,84.43
2019-03-12T07:30:55.018Z,83.58
2019-03-12T07:31:55.104Z,83.38
2019-03-12T07:32:56.455Z,83.92
2019-03-12T07:33:55.041Z,83.41
2019-03-12T07:34:56.335Z,82.98
2019-03-12T07:35:57.105Z,83.04
2019-03-12T07:36:58.122Z,82.55
2019-03-12T07:37:58.136Z,82.28
2019-03-12T07:38:59.069Z,81.77
2019-03-12T07:39:59.970Z,81.67
2019-03-12T07:41:00.560Z,81.03
2019-03-12T07:42:01.455Z,81.06
2019-03-12T07:43:01.488Z,81.08
2019-03-12T07:44:02.338Z,80.63
2019-03-12T07:45:02.885Z,80.26
2019-03-12T07:46:03.519Z,80.09
2019-03-12T07:47:04.508Z,80.24
2019-03-12T07:48:05.213Z,79.94
2019-03-12T07:49:06.138Z,80.14
2019-03-12T07:50:07.086Z,80.50
2019-03-12T07:51:07.185Z,80.53
2019-03-12T07:52:08.834Z,80.74
2019-03-12T07:53:07.519Z,81.04
2019-03-12T07:54:09.373Z,80.33
2019-03-12T07:55:09.212Z,80.03
2019-03-12T07:56:11.174Z,79.88
2019-03-12T07:57:12.078Z,79.61
2019-03-12T07:58:12.933Z,79.96
2019-03-12T07:59:13.933Z,79.66
2019-03-12T08:00:14.217Z,79.59
2019-03-12T08:01:14.843Z,79.60
2019-03-12T08:02:15.565Z,79.68
2019-03-12T08:03:15.583Z,79.89
2019-03-12T08:04:15.676Z,79.56
2019-03-12T08:05:15.325Z,79.04
2019-03-12T08:06:17.229Z,79.03
2019-03-12T08:07:17.286Z,79.16
2019-03-12T08:08:18.093Z,78.22
2019-03-12T08:09:19.042Z,78.40
2019-03-12T08:10:19.303Z,78.45
2019-03-12T08:11:20.087Z,78.11
2019-03-12T08:12:21.021Z,77.90
2019-03-12T08:13:21.393Z,78.11
2019-03-12T08:14:21.691Z,77.95
2019-03-12T08:15:23.559Z,78.09
2019-03-12T08:15:31.218Z,77.64
2019-03-12T08:16:32.389Z,77.63
2019-03-12T08:17:33.294Z,78.14
2019-03-12T08:18:35.567Z,77.99
2019-03-12T08:19:33.470Z,77.87
2019-03-12T08:20:35.383Z,77.18
2019-03-12T08:21:35.587Z,76.70
2019-03-12T08:22:36.455Z,76.90
2019-03-12T08:23:36.490Z,76.39
2019-03-12T08:24:36.847Z,76.69
2019-03-12T08:25:35.886Z,76.13
2019-03-12T08:26:37.125Z,75.45
2019-03-12T08:27:37.602Z,75.55
2019-03-12T08:28:37.938Z,74.60
2019-03-12T08:29:38.282Z,73.24
2019-03-12T08:30:39.212Z,72.58
2019-03-12T08:31:39.857Z,71.78
2019-03-12T08:32:40.802Z,70.93
2019-03-12T08:33:50.606Z,71.16
2019-03-12T08:34:41.381Z,69.96
2019-03-12T08:35:42.436Z,67.89
2019-03-12T08:36:43.295Z,68.17
2019-03-12T08:37:44.001Z,65.71
2019-03-12T08:38:46.359Z,65.80
2019-03-12T08:39:43.988Z,62.97
2019-03-12T08:40:52.407Z,62.17
2019-03-12T08:41:44.733Z,62.40
2019-03-12T08:42:54.494Z,60.98
2019-03-12T08:43:46.016Z,60.90
2019-03-12T08:44:47.211Z,60.29
2019-03-12T08:45:48.854Z,60.23
2019-03-12T08:46:46.947Z,60.34
2019-03-12T08:47:48.957Z,60.25
2019-03-12T08:48:48.287Z,59.39
2019-03-12T08:49:50.159Z,57.96
2019-03-12T08:50:51.147Z,58.73
2019-03-12T08:51:52.075Z,58.20
2019-03-12T08:52:52.243Z,58.06
2019-03-12T08:53:53.180Z,57.37
2019-03-12T08:54:54.440Z,58.26
2019-03-12T08:55:52.636Z,58.71
2019-03-12T08:56:54.525Z,58.44
2019-03-12T08:57:54.777Z,56.98
2019-03-12T08:58:55.574Z,56.80
2019-03-12T08:59:56.328Z,57.86
2019-03-12T09:00:57.297Z,58.31
2019-03-12T09:01:57.367Z,58.17
2019-03-12T09:02:58.164Z,57.95
2019-03-12T09:03:58.297Z,58.58
2019-03-12T09:04:58.674Z,58.91
2019-03-12T09:05:59.287Z,58.44
2019-03-12T09:06:07.853Z,58.77
2019-03-12T09:07:08.968Z,58.81
2019-03-12T09:08:09.211Z,59.80
2019-03-12T09:09:09.251Z,60.00
2019-03-12T09:10:09.441Z,60.35
2019-03-12T09:11:09.753Z,61.26
2019-03-12T09:12:10.589Z,60.85
2019-03-12T09:13:11.017Z,61.22
2019-03-12T09:14:11.115Z,61.91
2019-03-12T09:15:11.134Z,62.48
2019-03-12T09:16:11.491Z,63.53
2019-03-12T09:17:11.641Z,63.49
2019-03-12T09:18:11.847Z,63.63
2019-03-12T09:19:12.083Z,64.02
2019-03-12T09:20:12.697Z,64.34
2019-03-12T09:21:13.619Z,65.17
2019-03-12T09:22:14.628Z,65.59
2019-03-12T09:23:14.842Z,65.73
2019-03-12T09:24:13.963Z,65.25
2019-03-12T09:25:15.097Z,64.67
2019-03-12T09:26:15.127Z,65.05
2019-03-12T09:27:15.236Z,64.33
2019-03-12T09:28:16.025Z,65.19
2019-03-12T09:29:16.968Z,64.83
2019-03-12T09:30:17.712Z,64.36
2019-03-12T09:31:17.292Z,63.78
2019-03-12T09:32:19.203Z,63.01
2019-03-12T09:33:20.049Z,63.18
2019-03-12T09:34:20.196Z,61.05
2019-03-12T09:35:20.457Z,60.68
2019-03-12T09:36:20.686Z,59.79
2019-03-12T09:37:21.022Z,60.30
2019-03-12T09:38:21.951Z,59.58
2019-03-12T09:39:22.893Z,58.74
2019-03-12T09:40:21.961Z,58.68
2019-03-12T09:42:24.108Z,57.90
2019-03-12T09:43:24.186Z,57.99
2019-03-12T09:44:25.332Z,58.45
2019-03-12T09:45:25.904Z,59.04
2019-03-12T09:46:26.767Z,59.38
2019-03-12T09:47:27.602Z,58.69
2019-03-12T09:48:28.149Z,58.87
2019-03-12T09:49:29.332Z,58.59
2019-03-12T09:50:28.031Z,59.04
2019-03-12T09:51:29.166Z,58.03
2019-03-12T09:52:29.708Z,57.80
2019-03-12T09:53:30.232Z,58.16
2019-03-12T09:54:29.103Z,58.33
2019-03-12T09:55:30.866Z,57.71
2019-03-12T09:55:41.321Z,57.80
2019-03-12T09:56:43.457Z,57.77
2019-03-12T09:57:42.634Z,57.97
2019-03-12T09:58:43.243Z,57.23
2019-03-12T09:59:43.239Z,57.43
2019-03-12T10:00:44.129Z,57.69
2019-03-12T10:01:43.965Z,57.59
2019-03-12T10:02:45.000Z,56.76
2019-03-12T10:03:44.611Z,57.16
2019-03-12T10:04:45.830Z,58.34
2019-03-12T10:05:46.723Z,58.05
2019-03-12T10:06:45.841Z,58.61
2019-03-12T10:07:47.483Z,59.76
2019-03-12T10:08:47.110Z,60.32
2019-03-12T10:09:47.742Z,59.53
2019-03-12T10:10:47.790Z,59.80
2019-03-12T10:11:48.408Z,59.45
2019-03-12T10:12:50.158Z,58.78
2019-03-12T10:13:50.491Z,58.86
2019-03-12T10:14:51.540Z,57.83
2019-03-12T10:15:50.322Z,58.05
2019-03-12T10:16:52.270Z,58.72
2019-03-12T10:17:52.465Z,57.41
2019-03-12T10:18:52.738Z,58.06
2019-03-12T10:19:53.381Z,58.62
2019-03-12T10:20:53.849Z,57.36
2019-03-12T10:21:55.922Z,57.21
2019-03-12T10:22:55.086Z,56.77
2019-03-12T10:23:57.084Z,57.68
2019-03-12T10:24:56.476Z,56.78
2019-03-12T10:25:56.551Z,56.48
2019-03-12T10:26:57.044Z,56.91
2019-03-12T10:27:58.053Z,57.22
2019-03-12T10:28:59.049Z,57.28
2019-03-12T10:29:59.951Z,57.19
2019-03-12T10:31:00.277Z,57.38
2019-03-12T10:31:59.766Z,57.92
2019-03-12T10:33:01.206Z,57.14
2019-03-12T10:34:00.456Z,57.68
2019-03-12T10:35:02.138Z,57.35
2019-03-12T10:36:01.997Z,57.88
2019-03-12T10:37:11.434Z,57.96
2019-03-12T10:38:02.862Z,58.49
2019-03-12T10:39:03.697Z,58.55
2019-03-12T10:40:05.709Z,57.83
2019-03-12T10:41:04.802Z,58.42
2019-03-12T10:42:05.255Z,58.73
2019-03-12T10:43:05.216Z,58.65
2019-03-12T10:44:05.517Z,58.42
2019-03-12T10:45:05.726Z,58.28
2019-03-12T10:46:06.714Z,59.25
2019-03-12T10:47:06.905Z,58.96
2019-03-12T10:48:08.589Z,59.74
2019-03-12T10:49:08.986Z,60.25
2019-03-12T10:50:09.564Z,60.53
2019-03-12T10:51:09.014Z,60.24
2019-03-12T10:52:10.783Z,59.96
2019-03-12T10:53:09.830Z,59.32
2019-03-12T10:54:10.185Z,59.36
2019-03-12T10:55:13.320Z,59.61
2019-03-12T10:56:11.033Z,59.40
2019-03-12T10:57:11.624Z,59.32
2019-03-12T10:58:12.639Z,58.97
2019-03-12T10:59:13.460Z,59.48
2019-03-12T11:00:14.519Z,59.71
2019-03-12T11:01:14.245Z,59.44
2019-03-12T11:02:16.042Z,60.16
2019-03-12T11:03:16.708Z,59.54
2019-03-12T11:04:17.645Z,60.32
2019-03-12T11:05:18.373Z,60.63
2019-03-12T11:06:18.082Z,60.11
2019-03-12T11:07:19.939Z,60.37
2019-03-12T11:08:20.757Z,60.60
2019-03-12T11:09:21.738Z,59.80
2019-03-12T11:10:22.554Z,59.78
2019-03-12T11:11:21.529Z,60.19
2019-03-12T11:11:31.026Z,59.88
2019-03-12T11:12:31.785Z,59.95
2019-03-12T11:13:32.204Z,59.78
2019-03-12T11:14:32.722Z,59.51
2019-03-12T11:15:33.376Z,59.93
2019-03-12T11:16:35.522Z,58.89
2019-03-12T11:17:48.395Z,59.36
2019-03-12T11:18:35.956Z,58.55
2019-03-12T11:19:36.206Z,59.04
2019-03-12T11:20:37.004Z,59.10
2019-03-12T11:21:38.976Z,58.83
2019-03-12T11:22:39.976Z,59.28
2019-03-12T11:23:38.867Z,59.49
2019-03-12T11:25:40.142Z,59.38
2019-03-12T11:26:40.136Z,59.66
2019-03-12T11:27:40.346Z,59.45
2019-03-12T11:28:40.480Z,58.97
2019-03-12T11:29:40.512Z,59.33
2019-03-12T11:30:41.670Z,59.09
2019-03-12T11:31:41.573Z,59.03
2019-03-12T11:32:42.600Z,59.04
2019-03-12T11:33:43.296Z,59.25
2019-03-12T11:34:43.736Z,59.00
2019-03-12T11:35:44.428Z,59.01
2019-03-12T11:36:43.547Z,58.67
2019-03-12T11:37:45.117Z,58.46
2019-03-12T11:38:45.066Z,59.43
2019-03-12T11:39:44.829Z,58.75
2019-03-12T11:40:45.954Z,58.75
2019-03-12T11:41:46.208Z,58.51
2019-03-12T11:42:47.314Z,58.52
2019-03-12T11:43:47.278Z,57.99
2019-03-12T11:44:47.593Z,58.55
2019-03-12T11:45:46.833Z,58.65
2019-03-12T11:46:46.830Z,58.84
2019-03-12T11:47:49.225Z,58.88
2019-03-12T11:48:48.004Z,59.42
2019-03-12T11:49:48.317Z,58.33
2019-03-12T11:50:50.146Z,59.02
2019-03-12T11:51:50.090Z,59.44
2019-03-12T11:52:56.133Z,59.91
2019-03-12T11:53:50.788Z,60.23
2019-03-12T11:54:51.113Z,60.17
2019-03-12T11:55:51.901Z,60.25
2019-03-12T11:56:53.724Z,59.85
2019-03-12T11:57:52.675Z,58.34
2019-03-12T11:58:54.617Z,58.45
2019-03-12T11:59:53.731Z,58.58
2019-03-12T12:00:54.326Z,59.11
2019-03-12T12:01:55.120Z,59.50
2019-03-12T12:03:00.342Z,59.08
2019-03-12T12:03:56.138Z,58.53
2019-03-12T12:04:56.400Z,58.62
2019-03-12T12:05:58.198Z,58.90
2019-03-12T12:06:57.731Z,59.20
2019-03-12T12:07:59.530Z,58.80
2019-03-12T12:09:01.059Z,59.47
2019-03-12T12:10:01.692Z,59.33
2019-03-12T12:11:00.072Z,58.97
2019-03-12T12:12:01.556Z,58.20
2019-03-12T12:13:02.502Z,59.14
2019-03-12T12:14:02.477Z,58.61
2019-03-12T12:15:03.441Z,59.12
2019-03-12T12:16:03.559Z,59.66
2019-03-12T12:17:04.309Z,59.47
2019-03-12T12:18:06.118Z,59.39
2019-03-12T12:19:05.730Z,58.94
2019-03-12T12:20:07.580Z,58.62
2019-03-12T12:21:06.946Z,59.17
2019-03-12T12:22:07.214Z,58.75
2019-03-12T12:23:08.318Z,58.99
2019-03-12T12:24:08.178Z,59.06
2019-03-12T12:25:09.755Z,58.50
2019-03-12T12:26:10.370Z,58.25
2019-03-12T12:27:11.287Z,59.17
2019-03-12T12:28:10.524Z,59.06
2019-03-12T12:29:12.211Z,59.07
2019-03-12T12:30:12.711Z,58.14
2019-03-12T12:31:12.074Z,58.30
2019-03-12T12:32:12.657Z,58.36
2019-03-12T12:33:14.607Z,57.83
2019-03-12T12:34:14.783Z,58.67
2019-03-12T12:35:14.362Z,57.78
2019-03-12T12:36:14.793Z,56.87
2019-03-12T12:36:24.544Z,57.79
2019-03-12T12:37:24.863Z,57.80
2019-03-12T12:38:24.962Z,58.67
2019-03-12T12:39:25.591Z,58.45
2019-03-12T12:40:26.663Z,58.08
2019-03-12T12:41:28.026Z,58.08
2019-03-12T12:42:27.211Z,57.37
2019-03-12T12:43:29.214Z,57.34
2019-03-12T12:44:29.043Z,58.15
2019-03-12T12:45:30.952Z,58.39
2019-03-12T12:46:31.227Z,58.73
2019-03-12T12:47:31.882Z,58.74
2019-03-12T12:48:30.890Z,57.37
2019-03-12T12:49:32.654Z,57.66